sensor_id;sensor_type;location;lat;lon;timestamp;P1;durP1;ratioP1;P2;durP2;ratioP2
26034;SDS011;13809;48.632;11.576;2022-12-10T00:01:52;14.23;;;12.77;;
26034;SDS011;13809;48.632;11.576;2022-12-10T00:06:55;13.73;;;12.33;;
26034;SDS011;13809;48.632;11.576;2022-12-10T00:12:00;13.47;;;12.03;;
26034;SDS011;13809;48.632;11.576;2022-12-10T00:17:03;13.30;;;11.90;;
26034;SDS011;13809;48.632;11.576;2022-12-10T00:22:13;13.63;;;12.30;;
26034;SDS011;13809;48.632;11.576;2022-12-10T00:27:17;14.50;;;13.00;;
26034;SDS011;13809;48.632;11.576;2022-12-10T00:32:21;13.53;;;12.13;;
26034;SDS011;13809;48.632;11.576;2022-12-10T00:37:24;15.10;;;13.53;;
26034;SDS011;13809;48.632;11.576;2022-12-10T00:42:28;13.47;;;12.10;;
26034;SDS011;13809;48.632;11.576;2022-12-10T00:47:31;14.17;;;12.67;;
26034;SDS011;13809;48.632;11.576;2022-12-10T00:52:34;14.57;;;13.07;;
26034;SDS011;13809;48.632;11.576;2022-12-10T00:57:39;13.67;;;12.23;;
26034;SDS011;13809;48.632;11.576;2022-12-10T01:02:42;13.67;;;12.27;;
26034;SDS011;13809;48.632;11.576;2022-12-10T01:07:45;13.37;;;12.03;;
26034;SDS011;13809;48.632;11.576;2022-12-10T01:12:50;14.67;;;13.17;;
26034;SDS011;13809;48.632;11.576;2022-12-10T01:17:53;16.73;;;13.23;;
26034;SDS011;13809;48.632;11.576;2022-12-10T01:22:57;14.87;;;13.23;;
26034;SDS011;13809;48.632;11.576;2022-12-10T01:28:01;14.77;;;13.27;;
26034;SDS011;13809;48.632;11.576;2022-12-10T01:33:04;14.47;;;12.97;;
26034;SDS011;13809;48.632;11.576;2022-12-10T01:38:07;14.90;;;12.90;;
26034;SDS011;13809;48.632;11.576;2022-12-10T01:43:12;14.53;;;12.97;;
26034;SDS011;13809;48.632;11.576;2022-12-10T01:48:17;14.30;;;12.80;;
26034;SDS011;13809;48.632;11.576;2022-12-10T01:53:20;13.67;;;12.27;;
26034;SDS011;13809;48.632;11.576;2022-12-10T01:58:25;13.77;;;12.37;;
26034;SDS011;13809;48.632;11.576;2022-12-10T02:03:29;12.63;;;11.23;;
26034;SDS011;13809;48.632;11.576;2022-12-10T02:08:41;13.40;;;12.10;;
26034;SDS011;13809;48.632;11.576;2022-12-10T02:13:56;13.17;;;11.77;;
26034;SDS011;13809;48.632;11.576;2022-12-10T02:19:06;12.63;;;11.33;;
26034;SDS011;13809;48.632;11.576;2022-12-10T02:24:17;15.57;;;13.67;;
26034;SDS011;13809;48.632;11.576;2022-12-10T02:29:26;14.50;;;12.40;;
26034;SDS011;13809;48.632;11.576;2022-12-10T02:34:32;14.73;;;13.20;;
26034;SDS011;13809;48.632;11.576;2022-12-10T02:39:38;13.90;;;12.43;;
26034;SDS011;13809;48.632;11.576;2022-12-10T02:44:45;14.60;;;13.10;;
26034;SDS011;13809;48.632;11.576;2022-12-10T02:49:51;14.03;;;12.63;;
26034;SDS011;13809;48.632;11.576;2022-12-10T02:54:58;14.53;;;13.03;;
26034;SDS011;13809;48.632;11.576;2022-12-10T03:00:07;14.47;;;12.60;;
26034;SDS011;13809;48.632;11.576;2022-12-10T03:05:15;15.30;;;13.33;;
26034;SDS011;13809;48.632;11.576;2022-12-10T03:10:24;13.20;;;11.80;;
26034;SDS011;13809;48.632;11.576;2022-12-10T03:15:32;12.93;;;11.53;;
26034;SDS011;13809;48.632;11.576;2022-12-10T03:20:38;12.00;;;10.67;;
26034;SDS011;13809;48.632;11.576;2022-12-10T03:25:46;14.43;;;12.93;;
26034;SDS011;13809;48.632;11.576;2022-12-10T03:30:51;14.60;;;13.10;;
26034;SDS011;13809;48.632;11.576;2022-12-10T03:35:56;13.47;;;12.17;;
26034;SDS011;13809;48.632;11.576;2022-12-10T03:41:00;13.53;;;11.90;;
26034;SDS011;13809;48.632;11.576;2022-12-10T03:46:04;13.57;;;12.17;;
26034;SDS011;13809;48.632;11.576;2022-12-10T03:51:08;13.83;;;12.37;;
26034;SDS011;13809;48.632;11.576;2022-12-10T03:56:11;12.67;;;11.37;;
26034;SDS011;13809;48.632;11.576;2022-12-10T04:01:15;13.67;;;12.10;;
26034;SDS011;13809;48.632;11.576;2022-12-10T04:06:19;13.90;;;12.50;;
26034;SDS011;13809;48.632;11.576;2022-12-10T04:11:22;12.97;;;11.67;;
26034;SDS011;13809;48.632;11.576;2022-12-10T04:16:27;13.83;;;12.33;;
26034;SDS011;13809;48.632;11.576;2022-12-10T04:21:32;13.70;;;12.30;;
26034;SDS011;13809;48.632;11.576;2022-12-10T04:26:55;13.77;;;12.37;;
26034;SDS011;13809;48.632;11.576;2022-12-10T04:32:01;13.97;;;12.57;;
26034;SDS011;13809;48.632;11.576;2022-12-10T04:37:05;13.77;;;12.37;;
26034;SDS011;13809;48.632;11.576;2022-12-10T04:42:08;14.93;;;12.73;;
26034;SDS011;13809;48.632;11.576;2022-12-10T04:47:13;13.07;;;11.70;;
26034;SDS011;13809;48.632;11.576;2022-12-10T04:52:16;15.43;;;12.33;;
26034;SDS011;13809;48.632;11.576;2022-12-10T04:57:19;14.17;;;12.67;;
26034;SDS011;13809;48.632;11.576;2022-12-10T05:02:24;14.70;;;13.20;;
26034;SDS011;13809;48.632;11.576;2022-12-10T05:07:27;13.47;;;12.13;;
26034;SDS011;13809;48.632;11.576;2022-12-10T05:12:31;13.60;;;12.20;;
26034;SDS011;13809;48.632;11.576;2022-12-10T05:17:35;14.57;;;11.93;;
26034;SDS011;13809;48.632;11.576;2022-12-10T05:22:38;13.43;;;12.03;;
26034;SDS011;13809;48.632;11.576;2022-12-10T05:27:59;12.80;;;11.50;;
26034;SDS011;13809;48.632;11.576;2022-12-10T05:33:03;14.40;;;12.90;;
26034;SDS011;13809;48.632;11.576;2022-12-10T05:38:06;14.17;;;12.67;;
26034;SDS011;13809;48.632;11.576;2022-12-10T05:43:11;14.17;;;12.40;;
26034;SDS011;13809;48.632;11.576;2022-12-10T05:48:16;14.23;;;12.33;;
26034;SDS011;13809;48.632;11.576;2022-12-10T05:53:19;14.50;;;13.00;;
26034;SDS011;13809;48.632;11.576;2022-12-10T05:58:22;14.73;;;12.87;;
26034;SDS011;13809;48.632;11.576;2022-12-10T06:03:27;15.00;;;13.40;;
26034;SDS011;13809;48.632;11.576;2022-12-10T06:08:30;15.23;;;13.60;;
26034;SDS011;13809;48.632;11.576;2022-12-10T06:13:34;14.93;;;13.33;;
26034;SDS011;13809;48.632;11.576;2022-12-10T06:18:39;14.23;;;12.77;;
26034;SDS011;13809;48.632;11.576;2022-12-10T06:23:42;14.20;;;12.80;;
26034;SDS011;13809;48.632;11.576;2022-12-10T06:28:45;14.17;;;12.63;;
26034;SDS011;13809;48.632;11.576;2022-12-10T06:33:51;14.03;;;12.63;;
26034;SDS011;13809;48.632;11.576;2022-12-10T06:38:55;13.27;;;11.87;;
26034;SDS011;13809;48.632;11.576;2022-12-10T06:43:58;14.23;;;12.73;;
26034;SDS011;13809;48.632;11.576;2022-12-10T06:49:02;15.97;;;14.13;;
26034;SDS011;13809;48.632;11.576;2022-12-10T06:54:06;14.97;;;13.20;;
26034;SDS011;13809;48.632;11.576;2022-12-10T06:59:10;15.43;;;13.23;;
26034;SDS011;13809;48.632;11.576;2022-12-10T07:04:14;15.30;;;13.70;;
26034;SDS011;13809;48.632;11.576;2022-12-10T07:09:18;15.27;;;13.67;;
26034;SDS011;13809;48.632;11.576;2022-12-10T07:14:21;16.23;;;14.13;;
26034;SDS011;13809;48.632;11.576;2022-12-10T07:19:25;16.03;;;14.33;;
26034;SDS011;13809;48.632;11.576;2022-12-10T07:24:28;16.27;;;14.57;;
26034;SDS011;13809;48.632;11.576;2022-12-10T07:29:31;16.27;;;14.53;;
26034;SDS011;13809;48.632;11.576;2022-12-10T07:34:36;17.67;;;15.40;;
26034;SDS011;13809;48.632;11.576;2022-12-10T07:39:39;15.43;;;13.83;;
26034;SDS011;13809;48.632;11.576;2022-12-10T07:44:44;18.27;;;15.37;;
26034;SDS011;13809;48.632;11.576;2022-12-10T07:49:51;20.43;;;15.20;;
26034;SDS011;13809;48.632;11.576;2022-12-10T07:54:55;19.70;;;16.80;;
26034;SDS011;13809;48.632;11.576;2022-12-10T07:59:58;19.73;;;16.33;;
26034;SDS011;13809;48.632;11.576;2022-12-10T08:05:03;18.33;;;15.80;;
26034;SDS011;13809;48.632;11.576;2022-12-10T08:10:06;18.13;;;16.20;;
26034;SDS011;13809;48.632;11.576;2022-12-10T08:15:10;19.10;;;16.80;;
26034;SDS011;13809;48.632;11.576;2022-12-10T08:20:16;19.57;;;17.47;;
26034;SDS011;13809;48.632;11.576;2022-12-10T08:25:19;21.23;;;18.63;;
26034;SDS011;13809;48.632;11.576;2022-12-10T08:30:22;20.97;;;18.57;;
26034;SDS011;13809;48.632;11.576;2022-12-10T08:35:27;21.20;;;18.90;;
26034;SDS011;13809;48.632;11.576;2022-12-10T08:40:31;19.30;;;16.07;;
26034;SDS011;13809;48.632;11.576;2022-12-10T08:45:34;19.03;;;16.60;;
26034;SDS011;13809;48.632;11.576;2022-12-10T08:50:39;20.90;;;17.87;;
26034;SDS011;13809;48.632;11.576;2022-12-10T08:55:42;21.83;;;17.67;;
26034;SDS011;13809;48.632;11.576;2022-12-10T09:00:49;20.27;;;17.57;;
26034;SDS011;13809;48.632;11.576;2022-12-10T09:05:54;20.47;;;18.27;;
26034;SDS011;13809;48.632;11.576;2022-12-10T09:10:57;19.77;;;17.20;;
26034;SDS011;13809;48.632;11.576;2022-12-10T09:16:06;22.83;;;17.70;;
26034;SDS011;13809;48.632;11.576;2022-12-10T09:21:11;20.20;;;17.33;;
26034;SDS011;13809;48.632;11.576;2022-12-10T09:26:16;20.17;;;17.50;;
26034;SDS011;13809;48.632;11.576;2022-12-10T09:31:20;21.87;;;17.57;;
26034;SDS011;13809;48.632;11.576;2022-12-10T09:36:24;22.50;;;19.60;;
26034;SDS011;13809;48.632;11.576;2022-12-10T09:41:38;22.83;;;19.17;;
26034;SDS011;13809;48.632;11.576;2022-12-10T09:46:57;22.77;;;19.57;;
26034;SDS011;13809;48.632;11.576;2022-12-10T09:52:04;23.37;;;19.37;;
26034;SDS011;13809;48.632;11.576;2022-12-10T09:57:16;24.60;;;20.67;;
26034;SDS011;13809;48.632;11.576;2022-12-10T10:02:24;22.97;;;19.43;;
26034;SDS011;13809;48.632;11.576;2022-12-10T10:07:30;21.77;;;18.83;;
26034;SDS011;13809;48.632;11.576;2022-12-10T10:12:37;24.83;;;20.23;;
26034;SDS011;13809;48.632;11.576;2022-12-10T10:17:42;25.03;;;20.30;;
26034;SDS011;13809;48.632;11.576;2022-12-10T10:22:48;27.47;;;21.47;;
26034;SDS011;13809;48.632;11.576;2022-12-10T10:27:52;26.07;;;21.17;;
26034;SDS011;13809;48.632;11.576;2022-12-10T10:32:56;28.03;;;21.60;;
26034;SDS011;13809;48.632;11.576;2022-12-10T10:38:01;25.43;;;21.07;;
26034;SDS011;13809;48.632;11.576;2022-12-10T10:43:12;28.00;;;22.63;;
26034;SDS011;13809;48.632;11.576;2022-12-10T10:48:21;29.47;;;23.30;;
26034;SDS011;13809;48.632;11.576;2022-12-10T10:53:28;27.30;;;22.10;;
26034;SDS011;13809;48.632;11.576;2022-12-10T10:58:32;29.03;;;22.73;;
26034;SDS011;13809;48.632;11.576;2022-12-10T11:03:36;28.17;;;22.90;;
26034;SDS011;13809;48.632;11.576;2022-12-10T11:08:48;29.70;;;23.97;;
26034;SDS011;13809;48.632;11.576;2022-12-10T11:13:53;27.70;;;21.77;;
26034;SDS011;13809;48.632;11.576;2022-12-10T11:19:19;24.90;;;20.57;;
26034;SDS011;13809;48.632;11.576;2022-12-10T11:24:25;27.23;;;22.03;;
26034;SDS011;13809;48.632;11.576;2022-12-10T11:29:39;27.23;;;22.07;;
26034;SDS011;13809;48.632;11.576;2022-12-10T11:34:52;25.77;;;21.10;;
26034;SDS011;13809;48.632;11.576;2022-12-10T11:45:50;27.37;;;21.07;;
26034;SDS011;13809;48.632;11.576;2022-12-10T11:51:02;26.47;;;21.07;;
26034;SDS011;13809;48.632;11.576;2022-12-10T11:56:09;27.97;;;22.17;;
26034;SDS011;13809;48.632;11.576;2022-12-10T12:01:24;25.50;;;21.53;;
26034;SDS011;13809;48.632;11.576;2022-12-10T12:06:39;43.50;;;38.97;;
26034;SDS011;13809;48.632;11.576;2022-12-10T12:11:58;26.40;;;22.43;;
26034;SDS011;13809;48.632;11.576;2022-12-10T12:17:09;25.90;;;21.40;;
26034;SDS011;13809;48.632;11.576;2022-12-10T12:22:17;23.23;;;19.73;;
26034;SDS011;13809;48.632;11.576;2022-12-10T12:27:27;24.93;;;20.00;;
26034;SDS011;13809;48.632;11.576;2022-12-10T12:32:38;26.33;;;20.97;;
26034;SDS011;13809;48.632;11.576;2022-12-10T12:37:51;25.70;;;21.30;;
26034;SDS011;13809;48.632;11.576;2022-12-10T12:42:58;25.20;;;20.60;;
26034;SDS011;13809;48.632;11.576;2022-12-10T12:48:10;23.93;;;19.57;;
26034;SDS011;13809;48.632;11.576;2022-12-10T12:53:21;23.40;;;19.83;;
26034;SDS011;13809;48.632;11.576;2022-12-10T12:58:35;23.67;;;18.87;;
26034;SDS011;13809;48.632;11.576;2022-12-10T13:03:45;24.60;;;20.07;;
26034;SDS011;13809;48.632;11.576;2022-12-10T13:08:52;23.50;;;19.30;;
26034;SDS011;13809;48.632;11.576;2022-12-10T13:19:39;22.43;;;19.17;;
26034;SDS011;13809;48.632;11.576;2022-12-10T13:24:48;22.57;;;18.67;;
26034;SDS011;13809;48.632;11.576;2022-12-10T13:30:27;21.27;;;17.37;;
26034;SDS011;13809;48.632;11.576;2022-12-10T13:35:43;22.13;;;18.13;;
26034;SDS011;13809;48.632;11.576;2022-12-10T13:41:01;24.60;;;19.43;;
26034;SDS011;13809;48.632;11.576;2022-12-10T13:46:25;24.17;;;19.67;;
26034;SDS011;13809;48.632;11.576;2022-12-10T13:51:36;28.93;;;20.60;;
26034;SDS011;13809;48.632;11.576;2022-12-10T13:56:50;25.90;;;21.77;;
26034;SDS011;13809;48.632;11.576;2022-12-10T14:02:00;26.70;;;22.07;;
26034;SDS011;13809;48.632;11.576;2022-12-10T14:07:20;27.10;;;22.10;;
26034;SDS011;13809;48.632;11.576;2022-12-10T14:12:24;28.50;;;22.97;;
26034;SDS011;13809;48.632;11.576;2022-12-10T14:17:32;27.33;;;22.50;;
26034;SDS011;13809;48.632;11.576;2022-12-10T14:22:43;26.03;;;21.67;;
26034;SDS011;13809;48.632;11.576;2022-12-10T14:27:48;28.23;;;23.47;;
26034;SDS011;13809;48.632;11.576;2022-12-10T14:32:53;25.47;;;20.93;;
26034;SDS011;13809;48.632;11.576;2022-12-10T14:38:02;27.73;;;23.83;;
26034;SDS011;13809;48.632;11.576;2022-12-10T14:43:06;28.90;;;24.97;;
26034;SDS011;13809;48.632;11.576;2022-12-10T14:48:13;28.77;;;23.53;;
26034;SDS011;13809;48.632;11.576;2022-12-10T14:53:19;24.63;;;20.47;;
26034;SDS011;13809;48.632;11.576;2022-12-10T14:58:29;26.33;;;21.60;;
26034;SDS011;13809;48.632;11.576;2022-12-10T15:03:43;24.63;;;21.03;;
26034;SDS011;13809;48.632;11.576;2022-12-10T15:08:49;25.53;;;21.50;;
26034;SDS011;13809;48.632;11.576;2022-12-10T15:13:59;25.77;;;20.83;;
26034;SDS011;13809;48.632;11.576;2022-12-10T15:19:16;28.40;;;22.70;;
26034;SDS011;13809;48.632;11.576;2022-12-10T15:24:25;25.30;;;21.27;;
26034;SDS011;13809;48.632;11.576;2022-12-10T15:29:31;24.33;;;20.27;;
26034;SDS011;13809;48.632;11.576;2022-12-10T15:34:39;25.13;;;20.27;;
26034;SDS011;13809;48.632;11.576;2022-12-10T15:39:46;22.90;;;19.40;;
26034;SDS011;13809;48.632;11.576;2022-12-10T15:44:53;23.50;;;19.97;;
26034;SDS011;13809;48.632;11.576;2022-12-10T15:49:58;25.37;;;19.80;;
26034;SDS011;13809;48.632;11.576;2022-12-10T15:55:03;26.77;;;20.30;;
26034;SDS011;13809;48.632;11.576;2022-12-10T16:00:08;23.57;;;19.20;;
26034;SDS011;13809;48.632;11.576;2022-12-10T16:05:22;25.17;;;20.00;;
26034;SDS011;13809;48.632;11.576;2022-12-10T16:10:28;25.63;;;18.87;;
26034;SDS011;13809;48.632;11.576;2022-12-10T16:15:32;23.47;;;18.90;;
26034;SDS011;13809;48.632;11.576;2022-12-10T16:20:46;22.83;;;19.33;;
26034;SDS011;13809;48.632;11.576;2022-12-10T16:25:50;21.20;;;17.70;;
26034;SDS011;13809;48.632;11.576;2022-12-10T16:30:54;24.33;;;19.27;;
26034;SDS011;13809;48.632;11.576;2022-12-10T16:35:58;22.93;;;18.97;;
26034;SDS011;13809;48.632;11.576;2022-12-10T16:41:06;20.47;;;18.27;;
26034;SDS011;13809;48.632;11.576;2022-12-10T16:46:16;22.87;;;18.47;;
26034;SDS011;13809;48.632;11.576;2022-12-10T16:51:20;20.97;;;18.23;;
26034;SDS011;13809;48.632;11.576;2022-12-10T16:56:28;20.10;;;17.30;;
26034;SDS011;13809;48.632;11.576;2022-12-10T17:01:32;19.97;;;17.87;;
26034;SDS011;13809;48.632;11.576;2022-12-10T17:06:36;19.60;;;16.60;;
26034;SDS011;13809;48.632;11.576;2022-12-10T17:11:41;19.70;;;16.03;;
26034;SDS011;13809;48.632;11.576;2022-12-10T17:16:48;19.30;;;17.17;;
26034;SDS011;13809;48.632;11.576;2022-12-10T17:21:53;22.77;;;18.77;;
26034;SDS011;13809;48.632;11.576;2022-12-10T17:26:58;21.27;;;18.40;;
26034;SDS011;13809;48.632;11.576;2022-12-10T17:32:05;19.30;;;16.10;;
26034;SDS011;13809;48.632;11.576;2022-12-10T17:37:14;19.57;;;16.63;;
26034;SDS011;13809;48.632;11.576;2022-12-10T17:42:20;21.83;;;18.87;;
26034;SDS011;13809;48.632;11.576;2022-12-10T17:47:24;25.07;;;19.10;;
26034;SDS011;13809;48.632;11.576;2022-12-10T17:52:29;22.40;;;18.37;;
26034;SDS011;13809;48.632;11.576;2022-12-10T17:57:33;21.27;;;17.90;;
26034;SDS011;13809;48.632;11.576;2022-12-10T18:02:36;21.83;;;18.33;;
26034;SDS011;13809;48.632;11.576;2022-12-10T18:07:40;23.17;;;19.87;;
26034;SDS011;13809;48.632;11.576;2022-12-10T18:12:45;22.93;;;20.30;;
26034;SDS011;13809;48.632;11.576;2022-12-10T18:17:48;23.43;;;19.37;;
26034;SDS011;13809;48.632;11.576;2022-12-10T18:22:52;22.93;;;20.40;;
26034;SDS011;13809;48.632;11.576;2022-12-10T18:27:58;22.63;;;19.53;;
26034;SDS011;13809;48.632;11.576;2022-12-10T18:33:04;22.27;;;19.17;;
26034;SDS011;13809;48.632;11.576;2022-12-10T18:38:08;22.27;;;19.80;;
26034;SDS011;13809;48.632;11.576;2022-12-10T18:43:15;22.60;;;19.07;;
26034;SDS011;13809;48.632;11.576;2022-12-10T18:48:19;26.13;;;21.70;;
26034;SDS011;13809;48.632;11.576;2022-12-10T18:53:22;24.63;;;20.70;;
26034;SDS011;13809;48.632;11.576;2022-12-10T18:58:26;24.23;;;21.40;;
26034;SDS011;13809;48.632;11.576;2022-12-10T19:03:29;26.27;;;22.20;;
26034;SDS011;13809;48.632;11.576;2022-12-10T19:08:33;24.13;;;21.53;;
26034;SDS011;13809;48.632;11.576;2022-12-10T19:13:57;23.97;;;20.17;;
26034;SDS011;13809;48.632;11.576;2022-12-10T19:19:00;23.93;;;20.57;;
26034;SDS011;13809;48.632;11.576;2022-12-10T19:24:06;27.23;;;23.33;;
26034;SDS011;13809;48.632;11.576;2022-12-10T19:29:14;27.13;;;21.30;;
26034;SDS011;13809;48.632;11.576;2022-12-10T19:34:19;27.83;;;23.27;;
26034;SDS011;13809;48.632;11.576;2022-12-10T19:39:23;26.10;;;22.77;;
26034;SDS011;13809;48.632;11.576;2022-12-10T19:44:28;27.17;;;23.10;;
26034;SDS011;13809;48.632;11.576;2022-12-10T19:49:32;29.60;;;23.67;;
26034;SDS011;13809;48.632;11.576;2022-12-10T19:54:35;27.90;;;23.40;;
26034;SDS011;13809;48.632;11.576;2022-12-10T19:59:39;31.43;;;24.47;;
26034;SDS011;13809;48.632;11.576;2022-12-10T20:04:43;26.33;;;23.13;;
26034;SDS011;13809;48.632;11.576;2022-12-10T20:09:46;29.33;;;24.37;;
26034;SDS011;13809;48.632;11.576;2022-12-10T20:14:51;27.17;;;22.97;;
26034;SDS011;13809;48.632;11.576;2022-12-10T20:19:54;24.57;;;20.30;;
26034;SDS011;13809;48.632;11.576;2022-12-10T20:24:57;25.50;;;21.30;;
26034;SDS011;13809;48.632;11.576;2022-12-10T20:30:02;24.00;;;20.80;;
26034;SDS011;13809;48.632;11.576;2022-12-10T20:35:06;24.37;;;21.40;;
26034;SDS011;13809;48.632;11.576;2022-12-10T20:40:13;23.70;;;20.30;;
26034;SDS011;13809;48.632;11.576;2022-12-10T20:45:35;24.93;;;19.97;;
26034;SDS011;13809;48.632;11.576;2022-12-10T20:50:41;24.70;;;21.20;;
26034;SDS011;13809;48.632;11.576;2022-12-10T20:55:45;23.83;;;20.27;;
26034;SDS011;13809;48.632;11.576;2022-12-10T21:00:49;24.47;;;19.67;;
26034;SDS011;13809;48.632;11.576;2022-12-10T21:05:53;22.83;;;19.63;;
26034;SDS011;13809;48.632;11.576;2022-12-10T21:10:56;21.67;;;19.00;;
26034;SDS011;13809;48.632;11.576;2022-12-10T21:16:01;24.17;;;20.10;;
26034;SDS011;13809;48.632;11.576;2022-12-10T21:21:06;22.73;;;18.67;;
26034;SDS011;13809;48.632;11.576;2022-12-10T21:26:09;20.57;;;17.70;;
26034;SDS011;13809;48.632;11.576;2022-12-10T21:31:16;19.03;;;16.23;;
26034;SDS011;13809;48.632;11.576;2022-12-10T21:36:21;20.97;;;17.67;;
26034;SDS011;13809;48.632;11.576;2022-12-10T21:41:25;20.33;;;17.53;;
26034;SDS011;13809;48.632;11.576;2022-12-10T21:46:47;18.80;;;16.73;;
26034;SDS011;13809;48.632;11.576;2022-12-10T21:51:51;20.07;;;16.93;;
26034;SDS011;13809;48.632;11.576;2022-12-10T21:56:54;20.10;;;16.93;;
26034;SDS011;13809;48.632;11.576;2022-12-10T22:01:58;20.80;;;18.53;;
26034;SDS011;13809;48.632;11.576;2022-12-10T22:07:02;22.57;;;19.13;;
26034;SDS011;13809;48.632;11.576;2022-12-10T22:12:05;23.30;;;20.63;;
26034;SDS011;13809;48.632;11.576;2022-12-10T22:17:10;21.03;;;18.33;;
26034;SDS011;13809;48.632;11.576;2022-12-10T22:22:14;23.07;;;19.37;;
26034;SDS011;13809;48.632;11.576;2022-12-10T22:27:17;23.27;;;20.10;;
26034;SDS011;13809;48.632;11.576;2022-12-10T22:32:22;21.70;;;18.40;;
26034;SDS011;13809;48.632;11.576;2022-12-10T22:37:25;24.03;;;19.83;;
26034;SDS011;13809;48.632;11.576;2022-12-10T22:42:28;25.20;;;21.03;;
26034;SDS011;13809;48.632;11.576;2022-12-10T22:47:33;23.77;;;19.70;;
26034;SDS011;13809;48.632;11.576;2022-12-10T22:52:36;23.17;;;20.13;;
26034;SDS011;13809;48.632;11.576;2022-12-10T22:57:39;21.13;;;18.57;;
26034;SDS011;13809;48.632;11.576;2022-12-10T23:02:44;22.23;;;18.00;;
26034;SDS011;13809;48.632;11.576;2022-12-10T23:07:47;22.70;;;19.27;;
26034;SDS011;13809;48.632;11.576;2022-12-10T23:12:50;24.20;;;20.63;;
26034;SDS011;13809;48.632;11.576;2022-12-10T23:18:12;24.10;;;20.20;;
26034;SDS011;13809;48.632;11.576;2022-12-10T23:23:16;24.47;;;21.17;;
26034;SDS011;13809;48.632;11.576;2022-12-10T23:28:20;21.03;;;18.27;;
26034;SDS011;13809;48.632;11.576;2022-12-10T23:33:25;22.07;;;19.03;;
26034;SDS011;13809;48.632;11.576;2022-12-10T23:38:28;21.57;;;18.83;;
26034;SDS011;13809;48.632;11.576;2022-12-10T23:43:31;22.53;;;19.03;;
26034;SDS011;13809;48.632;11.576;2022-12-10T23:48:36;21.87;;;19.53;;
26034;SDS011;13809;48.632;11.576;2022-12-10T23:53:39;22.73;;;18.43;;
26034;SDS011;13809;48.632;11.576;2022-12-10T23:58:42;20.40;;;17.80;;
